Cape Carteret, North Carolina
Current Conditions -  °F | °C
As of 4:29 AM on Monday 24 Nov 2014 (Local Time) from KNJM Reporting Station
Light Rain Light Rain  
Wind Chill: 67°   Ceiling: 4100
Heat Index: 67°   Visibility: 4mi
Dew Point: 65°   Wind: 15mph
Humidity: 93%   Direction: 210°SSW
Pressure: 29.85"   Gusts: NA
Location:  34.7017°N, 77.1399°W
Report Text: KNJM 240929Z AUTO 21013KT 4SM -RA BR SCT009 BKN041 OVC070 19/18 A2985 RMK AO2 RAB12 P0000 T01940183
Loading
Personal Weather Stations






























Interactive Weather Map New forecast layout! Learn more

10-Day Weather Forecast

Advertisements
Track Severe Weather on mobile